Aérodrome :
LOGIN :

S'inscrire | Disclaimer

   EN    FR    IT 

 










Légende :    VFR   VFR Marginal   IFR   IFR Intensif   IFR Très Intensif
Visi : 
Plafond : 
>= 8 km
>= 3000ft
5 à 8 km
1000 à 3000 ft
1500m à 5 km
500 à 1000 ft
800 à 1500m
200 à 500 ft
< 800m
< 200 ft
Symboles :   Orages  Brouillard  Fortes neiges  Fortes précipitations  Vent > 20 kt
SIGMETs :   Divers  Orages  Givrage  Turbulence  Onde Orograph.  Cendres Volcan.







- Altitude de l'aérodrome : 22 ft
- Code IATA : TUN


DTTA - Tunis Carthage

DERNIER METAR :
  • 101830Z 27011KT 250V320 9999 FEW026 SCT040 15/06 Q1022 NOSIG

METARs EXPIRÉS :
  • 101800Z 28009KT 240V320 9999 FEW026 SCT040 15/06 Q1022 NOSIG
  • 101730Z 29015G28KT 260V330 9999 FEW026 SCT040 15/07 Q1022 NOSIG
  • 101700Z 30017G28KT 9999 FEW026 SCT040 15/06 Q1021 NOSIG
  • 101630Z 30017G30KT 270V330 9999 FEW026 SCT040 16/06 Q1021 NOSIG
  • 101600Z 30022G33KT 9999 FEW026 SCT040 16/07 Q1021 NOSIG

TAF TAF DTTA
Valide du 10 à 18h jusqu'au 11 à 18h UTC


101740Z 1018/1118 30020G30KT 9999 FEW026 SCT040
BECMG 1103/1105 30017KT
Pas de NOTAMs connus pour ce terrain.



MET'MAP, la Météo Aéronautique d'un coup d'oeil ! - Copyright ORBIFLY Décembre 2007 - Disclaimer

ORBIFLY MET'MAP TEAM :

Programmation & Développement : Alexandra Zaïnal
Conception & Développement : Baudouin d'Aumeries
Co-Programmation & Développement : Marc-Olivier Méhu
Soutien technique & logistique : Manuel Goepfert

Contact : metmap@orbifly.com




SOURCES & CREDITS :

   NOAA